createdAt,value
2018-10-21T00:01:34.912Z,5.70
2018-10-21T00:04:02.343Z,4.22
2018-10-21T00:06:29.771Z,5.12
2018-10-21T00:08:57.189Z,4.53
2018-10-21T00:11:27.835Z,4.95
2018-10-21T00:13:55.240Z,6.35
2018-10-21T00:16:22.642Z,4.80
2018-10-21T00:18:50.166Z,5.15
2018-10-21T00:21:17.627Z,5.10
2018-10-21T00:23:45.052Z,8.13
2018-10-21T00:26:12.474Z,5.90
2018-10-21T00:28:39.887Z,4.58
2018-10-21T00:31:07.296Z,4.35
2018-10-21T00:33:34.714Z,5.20
2018-10-21T00:36:02.127Z,4.33
2018-10-21T00:38:29.525Z,5.20
2018-10-21T00:40:56.939Z,4.20
2018-10-21T00:43:28.140Z,4.50
2018-10-21T00:45:55.542Z,4.65
2018-10-21T00:48:22.963Z,5.20
2018-10-21T00:50:50.371Z,5.30
2018-10-21T00:53:17.799Z,5.70
2018-10-21T00:55:45.227Z,4.92
2018-10-21T00:58:12.631Z,4.58
2018-10-21T01:00:40.035Z,5.72
2018-10-21T01:03:07.545Z,4.80
2018-10-21T01:05:34.889Z,5.65
2018-10-21T01:08:02.307Z,4.95
2018-10-21T01:10:30.703Z,4.70
2018-10-21T01:12:58.109Z,4.20
2018-10-21T01:15:25.533Z,4.90
2018-10-21T01:17:52.971Z,4.97
2018-10-21T01:20:20.399Z,5.15
2018-10-21T01:22:47.807Z,5.15
2018-10-21T01:25:15.251Z,4.33
2018-10-21T01:27:42.682Z,4.75
2018-10-21T01:30:11.079Z,4.12
2018-10-21T01:32:39.516Z,5.45
2018-10-21T01:35:07.594Z,5.55
2018-10-21T01:37:35.022Z,4.10
2018-10-21T01:40:48.050Z,5.28
2018-10-21T01:43:16.702Z,3.70
2018-10-21T01:45:44.200Z,4.72
2018-10-21T01:48:12.834Z,4.42
2018-10-21T01:50:40.288Z,4.28
2018-10-21T01:53:08.895Z,4.70
2018-10-21T01:55:36.344Z,4.60
2018-10-21T01:58:04.244Z,3.90
2018-10-21T02:00:32.280Z,4.72
2018-10-21T02:03:00.062Z,3.45
2018-10-21T02:05:27.690Z,4.03
2018-10-21T02:07:55.463Z,5.65
2018-10-21T02:10:22.870Z,3.72
2018-10-21T02:12:50.327Z,4.37
2018-10-21T02:15:17.774Z,3.42
2018-10-21T02:17:45.216Z,4.78
2018-10-21T02:20:13.555Z,4.00
2018-10-21T02:22:44.667Z,4.72
2018-10-21T02:25:12.183Z,4.40
2018-10-21T02:27:40.234Z,5.03
2018-10-21T02:30:09.047Z,4.12
2018-10-21T02:32:36.520Z,3.87
2018-10-21T02:35:04.937Z,3.90
2018-10-21T02:37:32.352Z,4.50
2018-10-21T02:39:59.771Z,4.75
2018-10-21T02:42:27.183Z,4.80
2018-10-21T02:44:54.634Z,3.47
2018-10-21T02:47:22.055Z,4.42
2018-10-21T02:49:49.455Z,3.75
2018-10-21T02:52:16.908Z,4.62
2018-10-21T02:54:44.427Z,3.17
2018-10-21T02:57:12.968Z,3.95
2018-10-21T02:59:40.323Z,3.62
2018-10-21T03:02:07.831Z,4.45
2018-10-21T03:04:35.247Z,3.65
2018-10-21T03:07:02.703Z,3.10
2018-10-21T03:09:30.508Z,3.62
2018-10-21T03:11:57.971Z,5.03
2018-10-21T03:14:25.430Z,3.77
2018-10-21T03:16:52.843Z,3.85
2018-10-21T03:19:20.256Z,3.35
2018-10-21T03:21:47.706Z,3.92
2018-10-21T03:24:15.139Z,3.75
2018-10-21T03:26:43.468Z,3.42
2018-10-21T03:29:10.863Z,3.20
2018-10-21T03:31:38.275Z,3.17
2018-10-21T03:34:05.854Z,4.72
2018-10-21T03:36:33.134Z,4.28
2018-10-21T03:39:00.574Z,3.95
2018-10-21T03:41:27.979Z,4.42
2018-10-21T03:43:55.407Z,4.67
2018-10-21T03:46:22.824Z,3.80
2018-10-21T03:48:50.231Z,3.87
2018-10-21T03:51:17.687Z,3.60
2018-10-21T03:53:45.091Z,4.03
2018-10-21T03:56:12.511Z,4.05
2018-10-21T03:58:39.923Z,4.62
2018-10-21T04:01:07.997Z,3.83
2018-10-21T04:03:35.478Z,5.53
2018-10-21T04:06:02.927Z,4.92
2018-10-21T04:08:30.331Z,4.80
2018-10-21T04:10:57.815Z,5.83
2018-10-21T04:13:25.258Z,5.37
2018-10-21T04:15:52.696Z,5.08
2018-10-21T04:18:20.115Z,4.72
2018-10-21T04:20:47.559Z,5.78
2018-10-21T04:23:14.955Z,5.15
2018-10-21T04:25:42.350Z,4.55
2018-10-21T04:28:10.215Z,5.45
2018-10-21T04:30:38.721Z,5.65
2018-10-21T04:33:11.923Z,4.50
2018-10-21T04:35:39.355Z,5.67
2018-10-21T04:38:26.267Z,4.45
2018-10-21T04:40:53.695Z,4.80
2018-10-21T04:43:21.149Z,4.42
2018-10-21T04:45:48.575Z,5.55
2018-10-21T04:48:16.027Z,5.80
2018-10-21T04:50:43.666Z,4.45
2018-10-21T04:53:11.075Z,5.78
2018-10-21T04:55:38.518Z,3.72
2018-10-21T04:58:06.063Z,6.30
2018-10-21T05:00:33.483Z,5.50
2018-10-21T05:03:00.867Z,5.15
2018-10-21T05:05:28.255Z,4.35
2018-10-21T05:07:55.686Z,4.55
2018-10-21T05:10:34.662Z,5.85
2018-10-21T05:13:02.655Z,5.12
2018-10-21T05:15:31.240Z,5.67
2018-10-21T05:17:58.683Z,5.30
2018-10-21T05:20:26.066Z,6.33
2018-10-21T05:22:53.596Z,5.00
2018-10-21T05:25:21.031Z,4.90
2018-10-21T05:27:48.423Z,3.90
2018-10-21T05:30:15.847Z,5.72
2018-10-21T05:32:47.144Z,5.95
2018-10-21T05:35:15.603Z,6.03
2018-10-21T05:37:43.103Z,5.00
2018-10-21T05:40:12.936Z,5.60
2018-10-21T05:42:40.383Z,5.78
2018-10-21T05:45:08.191Z,4.95
2018-10-21T05:47:36.054Z,6.10
2018-10-21T05:50:03.603Z,5.17
2018-10-21T05:52:31.026Z,5.08
2018-10-21T05:54:58.418Z,4.78
2018-10-21T05:57:25.831Z,6.30
2018-10-21T05:59:53.279Z,5.25
2018-10-21T06:02:20.695Z,4.78
2018-10-21T06:04:48.091Z,7.47
2018-10-21T06:07:15.515Z,5.00
2018-10-21T06:09:42.901Z,4.90
2018-10-21T06:12:10.322Z,6.62
2018-10-21T06:14:37.735Z,6.50
2018-10-21T06:17:12.966Z,5.35
2018-10-21T06:19:48.225Z,6.15
2018-10-21T06:22:15.719Z,7.10
2018-10-21T06:24:43.130Z,4.37
2018-10-21T06:27:10.543Z,6.35
2018-10-21T06:29:37.939Z,6.70
2018-10-21T06:32:05.422Z,4.78
2018-10-21T06:34:32.835Z,4.58
2018-10-21T06:37:00.431Z,5.62
2018-10-21T06:39:27.829Z,6.15
2018-10-21T06:41:55.264Z,4.80
2018-10-21T06:44:22.667Z,5.60
2018-10-21T06:46:50.111Z,5.35
2018-10-21T06:49:17.503Z,5.90
2018-10-21T06:51:44.912Z,4.83
2018-10-21T06:54:12.351Z,5.15
2018-10-21T06:56:39.940Z,4.30
2018-10-21T06:59:07.195Z,5.17
2018-10-21T07:01:34.998Z,4.22
2018-10-21T07:04:02.449Z,4.10
2018-10-21T07:06:30.031Z,4.25
2018-10-21T07:09:00.859Z,4.80
2018-10-21T07:11:28.271Z,3.85
2018-10-21T07:13:55.709Z,4.80
2018-10-21T07:16:26.474Z,4.45
2018-10-21T07:18:53.839Z,5.78
2018-10-21T07:21:21.263Z,4.33
2018-10-21T07:23:48.656Z,5.50
2018-10-21T07:26:16.074Z,4.60
2018-10-21T07:28:43.495Z,5.45
2018-10-21T07:31:10.884Z,4.92
2018-10-21T07:33:38.308Z,4.83
2018-10-21T07:36:05.737Z,4.90
2018-10-21T07:38:36.825Z,4.75
2018-10-21T07:41:04.479Z,4.70
2018-10-21T07:43:31.883Z,7.05
2018-10-21T07:45:59.395Z,6.70
2018-10-21T07:48:26.720Z,5.73
2018-10-21T07:50:54.151Z,6.93
2018-10-21T07:53:21.552Z,6.30
2018-10-21T07:55:49.053Z,6.10
2018-10-21T07:58:16.416Z,4.47
2018-10-21T08:00:43.833Z,5.47
2018-10-21T08:03:11.204Z,6.07
2018-10-21T08:05:50.195Z,5.63
2018-10-21T08:08:19.899Z,5.33
2018-10-21T08:10:47.311Z,5.23
2018-10-21T08:13:16.907Z,5.67
2018-10-21T08:15:44.666Z,5.83
2018-10-21T08:18:12.818Z,5.87
2018-10-21T08:20:41.179Z,5.17
2018-10-21T08:23:09.954Z,4.87
2018-10-21T08:25:37.708Z,5.47
2018-10-21T08:28:05.159Z,5.80
2018-10-21T08:30:32.581Z,5.37
2018-10-21T08:32:59.982Z,5.20
2018-10-21T08:35:27.389Z,5.67
2018-10-21T08:37:54.819Z,6.60
2018-10-21T08:40:25.298Z,6.60
2018-10-21T08:42:52.707Z,6.00
2018-10-21T08:45:20.118Z,6.73
2018-10-21T08:47:47.555Z,6.40
2018-10-21T08:50:14.963Z,5.23
2018-10-21T08:52:42.380Z,5.70
2018-10-21T08:55:10.636Z,6.03
2018-10-21T08:57:38.247Z,6.60
2018-10-21T09:00:12.754Z,5.20
2018-10-21T09:02:40.635Z,6.77
2018-10-21T09:05:09.803Z,7.37
2018-10-21T09:07:37.243Z,5.40
2018-10-21T09:10:05.725Z,6.53
2018-10-21T09:12:33.077Z,5.70
2018-10-21T09:15:00.543Z,5.70
2018-10-21T09:17:27.936Z,4.63
2018-10-21T09:19:55.391Z,3.87
2018-10-21T09:22:22.791Z,3.10
2018-10-21T09:24:50.191Z,3.20
2018-10-21T09:27:17.600Z,3.50
2018-10-21T09:29:45.015Z,4.10
2018-10-21T09:32:12.423Z,4.57
2018-10-21T09:34:39.831Z,3.37
2018-10-21T09:37:07.316Z,3.53
2018-10-21T09:39:34.670Z,3.20
2018-10-21T09:42:02.127Z,3.13
2018-10-21T09:44:29.514Z,3.10
2018-10-21T09:46:56.923Z,2.80
2018-10-21T09:49:24.347Z,2.53
2018-10-21T09:51:51.767Z,2.90
2018-10-21T09:54:20.231Z,3.37
2018-10-21T09:56:47.660Z,3.67
2018-10-21T09:59:15.084Z,3.80
2018-10-21T10:01:48.351Z,3.60
2018-10-21T10:04:15.837Z,3.33
2018-10-21T10:06:43.209Z,3.10
2018-10-21T10:09:12.108Z,3.50
2018-10-21T10:11:39.951Z,2.87
2018-10-21T10:14:07.343Z,3.20
2018-10-21T10:16:34.771Z,4.27
2018-10-21T10:19:02.300Z,3.27
2018-10-21T10:21:29.705Z,4.07
2018-10-21T10:23:57.186Z,3.17
2018-10-21T10:26:24.555Z,4.07
2018-10-21T10:28:51.958Z,3.20
2018-10-21T10:31:19.468Z,4.17
2018-10-21T10:33:50.251Z,4.03
2018-10-21T10:36:17.790Z,3.43
2018-10-21T10:38:45.119Z,3.57
2018-10-21T10:41:12.519Z,2.93
2018-10-21T10:43:39.923Z,4.37
2018-10-21T10:46:07.340Z,3.57
2018-10-21T10:48:34.754Z,3.27
2018-10-21T10:51:02.173Z,4.27
2018-10-21T10:53:29.607Z,3.70
2018-10-21T10:55:57.008Z,4.17
2018-10-21T10:58:24.433Z,3.57
2018-10-21T11:00:51.846Z,3.50
2018-10-21T11:03:19.261Z,2.60
2018-10-21T11:05:46.680Z,3.50
2018-10-21T11:08:17.218Z,3.63
2018-10-21T11:10:44.623Z,3.77
2018-10-21T11:13:12.092Z,3.77
2018-10-21T11:15:39.459Z,3.00
2018-10-21T11:18:06.872Z,2.77
2018-10-21T11:20:34.299Z,3.97
2018-10-21T11:23:01.707Z,4.27
2018-10-21T11:25:29.115Z,2.93
2018-10-21T11:27:56.526Z,3.30
2018-10-21T11:30:23.931Z,4.20
2018-10-21T11:32:55.163Z,3.50
2018-10-21T11:35:22.554Z,3.60
2018-10-21T11:37:49.948Z,3.80
2018-10-21T11:40:17.439Z,3.20
2018-10-21T11:42:44.807Z,5.27
2018-10-21T11:45:12.239Z,3.00
2018-10-21T11:47:39.654Z,3.70
2018-10-21T11:50:07.155Z,3.30
2018-10-21T11:52:34.660Z,2.90
2018-10-21T11:55:02.043Z,2.90
2018-10-21T11:57:29.399Z,2.10
2018-10-21T11:59:56.822Z,3.47
2018-10-21T12:02:24.243Z,2.70
2018-10-21T12:04:52.475Z,2.57
2018-10-21T12:07:19.875Z,2.40
2018-10-21T12:09:47.311Z,2.10
2018-10-21T12:12:14.695Z,2.70
2018-10-21T12:14:42.088Z,2.10
2018-10-21T12:17:09.511Z,2.17
2018-10-21T12:19:36.899Z,2.57
2018-10-21T12:22:04.673Z,2.70
2018-10-21T12:24:32.039Z,2.33
2018-10-21T12:26:59.428Z,2.23
2018-10-21T12:29:26.839Z,2.63
2018-10-21T12:31:54.255Z,2.60
2018-10-21T12:34:21.647Z,2.63
2018-10-21T12:36:49.059Z,3.00
2018-10-21T12:39:16.492Z,2.70
2018-10-21T12:41:43.883Z,2.53
2018-10-21T12:44:11.283Z,2.50
2018-10-21T12:46:39.350Z,2.47
2018-10-21T12:49:06.755Z,2.53
2018-10-21T12:51:34.355Z,1.97
2018-10-21T12:54:01.814Z,2.93
2018-10-21T12:56:29.233Z,2.83
2018-10-21T12:58:56.639Z,2.33
2018-10-21T13:01:24.068Z,2.60
2018-10-21T13:03:51.463Z,3.13
2018-10-21T13:06:18.883Z,3.23
2018-10-21T13:08:46.303Z,3.17
2018-10-21T13:11:13.679Z,3.30
2018-10-21T13:13:41.068Z,2.60
2018-10-21T13:16:08.573Z,3.00
2018-10-21T13:18:35.943Z,3.57
2018-10-21T13:21:03.435Z,3.37
2018-10-21T13:23:30.855Z,3.00
2018-10-21T13:25:58.247Z,2.27
2018-10-21T13:28:28.785Z,3.43
2018-10-21T13:30:56.542Z,3.13
2018-10-21T13:33:26.691Z,3.60
2018-10-21T13:35:54.405Z,2.20
2018-10-21T13:38:22.212Z,2.87
2018-10-21T13:40:49.970Z,2.97
2018-10-21T13:43:17.723Z,3.00
2018-10-21T13:45:45.556Z,3.37
2018-10-21T13:48:13.287Z,3.30
2018-10-21T13:50:41.056Z,2.80
2018-10-21T13:53:28.280Z,3.00
2018-10-21T13:55:56.032Z,3.40
2018-10-21T13:58:23.824Z,2.63
2018-10-21T14:00:51.667Z,2.90
2018-10-21T14:03:19.356Z,2.70
2018-10-21T14:05:47.076Z,2.87
2018-10-21T14:08:14.824Z,3.27
2018-10-21T14:10:42.523Z,2.90
2018-10-21T14:13:10.423Z,3.03
2018-10-21T14:15:38.252Z,3.47
2018-10-21T14:18:05.983Z,3.03
2018-10-21T14:20:33.692Z,3.73
2018-10-21T14:23:01.484Z,2.57
2018-10-21T14:25:29.248Z,3.30
2018-10-21T14:27:56.982Z,2.97
2018-10-21T14:30:24.857Z,3.60
2018-10-21T14:32:52.472Z,3.90
2018-10-21T14:35:20.129Z,3.57
2018-10-21T14:37:47.830Z,3.47
2018-10-21T14:40:16.507Z,3.97
2018-10-21T14:42:45.179Z,3.17
2018-10-21T14:45:13.025Z,4.60
2018-10-21T14:47:40.863Z,3.20
2018-10-21T14:50:09.522Z,2.83
2018-10-21T14:52:37.223Z,5.03
2018-10-21T14:55:05.802Z,3.50
2018-10-21T14:57:33.560Z,3.33
2018-10-21T15:00:01.299Z,4.83
2018-10-21T15:02:28.981Z,3.40
2018-10-21T15:04:56.672Z,2.17
2018-10-21T15:07:24.376Z,3.30
2018-10-21T15:09:52.132Z,2.70
2018-10-21T15:12:19.840Z,5.30
2018-10-21T15:14:47.487Z,3.87
2018-10-21T15:17:15.355Z,4.97
2018-10-21T15:19:43.059Z,5.13
2018-10-21T15:23:51.011Z,3.50
2018-10-21T15:26:18.481Z,3.37
2018-10-21T15:28:45.851Z,9.73
2018-10-21T15:31:13.284Z,5.40
2018-10-21T15:33:40.716Z,2.73
2018-10-21T15:36:08.144Z,2.93
2018-10-21T15:38:35.584Z,3.07
2018-10-21T15:41:03.087Z,3.10
2018-10-21T15:43:30.540Z,3.60
2018-10-21T15:45:58.018Z,3.23
2018-10-21T15:48:25.420Z,3.43
2018-10-21T15:50:52.847Z,2.53
2018-10-21T15:53:20.295Z,2.70
2018-10-21T15:55:47.715Z,2.30
2018-10-21T15:58:15.185Z,2.53
2018-10-21T16:00:42.587Z,2.87
2018-10-21T16:03:13.579Z,2.50
2018-10-21T16:05:41.048Z,2.87
2018-10-21T16:08:11.637Z,2.93
2018-10-21T16:10:39.079Z,3.37
2018-10-21T16:13:07.467Z,3.77
2018-10-21T16:15:34.941Z,2.87
2018-10-21T16:18:02.447Z,2.83
2018-10-21T16:20:30.640Z,2.40
2018-10-21T16:22:58.078Z,3.77
2018-10-21T16:25:25.615Z,3.10
2018-10-21T16:27:53.004Z,3.50
2018-10-21T16:30:20.431Z,4.30
2018-10-21T16:32:48.122Z,2.97
2018-10-21T16:35:15.435Z,3.27
2018-10-21T16:37:42.868Z,2.90
2018-10-21T16:40:12.363Z,3.60
2018-10-21T16:42:39.838Z,3.10
2018-10-21T16:45:07.768Z,3.57
2018-10-21T16:47:39.317Z,3.33
2018-10-21T16:50:12.811Z,2.80
2018-10-21T16:52:40.905Z,3.70
2018-10-21T16:55:09.285Z,4.07
2018-10-21T16:57:36.949Z,5.20
2018-10-21T17:00:06.691Z,6.57
2018-10-21T17:02:34.047Z,6.20
2018-10-21T17:05:01.525Z,7.63
2018-10-21T17:07:33.399Z,6.33
2018-10-21T17:10:01.214Z,5.63
2018-10-21T17:12:28.417Z,4.23
2018-10-21T17:14:55.924Z,5.00
2018-10-21T17:17:23.409Z,3.77
2018-10-21T17:19:50.861Z,3.47
2018-10-21T17:22:22.243Z,3.37
2018-10-21T17:24:49.793Z,3.37
2018-10-21T17:27:17.400Z,3.40
2018-10-21T17:29:44.883Z,4.77
2018-10-21T17:32:12.329Z,4.80
2018-10-21T17:34:39.819Z,3.77
2018-10-21T17:37:07.345Z,4.40
2018-10-21T17:39:35.028Z,3.60
2018-10-21T17:42:02.863Z,3.90
2018-10-21T17:44:31.600Z,3.50
2018-10-21T17:47:03.489Z,3.90
2018-10-21T17:49:31.940Z,3.40
2018-10-21T17:52:04.687Z,2.80
2018-10-21T17:54:33.135Z,3.47
2018-10-21T17:57:02.364Z,3.87
2018-10-21T17:59:35.251Z,4.40
2018-10-21T18:02:05.099Z,4.10
2018-10-21T18:04:33.487Z,3.47
2018-10-21T18:07:02.884Z,4.13
2018-10-21T18:09:32.592Z,2.90
2018-10-21T18:12:02.298Z,4.63
2018-10-21T18:14:32.244Z,3.80
2018-10-21T18:17:02.200Z,3.57
2018-10-21T18:19:32.091Z,4.20
2018-10-21T18:22:06.369Z,3.63
2018-10-21T18:24:37.412Z,3.57
2018-10-21T18:27:11.645Z,3.90
2018-10-21T18:29:43.013Z,3.47
2018-10-21T18:32:13.297Z,3.50
2018-10-21T18:34:44.177Z,3.40
2018-10-21T18:37:17.721Z,4.17
2018-10-21T18:39:48.939Z,4.37
2018-10-21T18:42:18.971Z,4.93
2018-10-21T18:44:48.972Z,4.20
2018-10-21T18:47:18.960Z,4.13
2018-10-21T18:49:49.636Z,4.07
2018-10-21T18:52:19.758Z,4.97
2018-10-21T18:54:49.769Z,3.53
2018-10-21T18:57:19.836Z,3.50
2018-10-21T18:59:50.461Z,3.33
2018-10-21T19:02:20.421Z,3.60
2018-10-21T19:04:50.487Z,3.10
2018-10-21T19:07:20.542Z,2.90
2018-10-21T19:09:51.057Z,3.70
2018-10-21T19:12:21.970Z,3.20
2018-10-21T19:14:52.029Z,3.50
2018-10-21T19:17:23.053Z,3.67
2018-10-21T19:19:53.053Z,4.03
2018-10-21T19:22:23.084Z,3.60
2018-10-21T19:24:53.890Z,3.52
2018-10-21T19:27:24.388Z,4.03
2018-10-21T19:29:54.429Z,3.40
2018-10-21T19:32:24.447Z,3.97
2018-10-21T19:34:54.493Z,3.47
2018-10-21T19:37:24.527Z,3.60
2018-10-21T19:39:54.664Z,3.60
2018-10-21T19:42:24.597Z,3.13
2018-10-21T19:44:54.655Z,3.60
2018-10-21T19:47:24.710Z,3.07
2018-10-21T19:49:54.894Z,3.97
2018-10-21T19:52:24.959Z,3.40
2018-10-21T19:54:55.201Z,2.47
2018-10-21T19:57:25.207Z,2.90
2018-10-21T19:59:56.046Z,3.67
2018-10-21T20:02:26.089Z,2.70
2018-10-21T20:04:56.078Z,3.58
2018-10-21T20:07:26.366Z,3.30
2018-10-21T20:09:56.397Z,3.15
2018-10-21T20:12:26.361Z,3.97
2018-10-21T20:14:56.352Z,3.47
2018-10-21T20:17:26.275Z,3.25
2018-10-21T20:19:56.127Z,4.08
2018-10-21T20:22:25.934Z,3.67
2018-10-21T20:24:55.980Z,3.10
2018-10-21T20:27:25.978Z,4.00
2018-10-21T20:29:55.986Z,3.40
2018-10-21T20:32:26.378Z,2.92
2018-10-21T20:34:56.393Z,3.63
2018-10-21T20:37:27.399Z,3.70
2018-10-21T20:39:58.311Z,3.15
2018-10-21T20:42:26.625Z,4.55
2018-10-21T20:44:54.517Z,4.13
2018-10-21T20:47:22.394Z,3.70
2018-10-21T20:49:50.346Z,3.33
2018-10-21T20:52:18.373Z,3.75
2018-10-21T20:54:48.816Z,3.17
2018-10-21T20:57:16.617Z,3.77
2018-10-21T20:59:45.644Z,3.67
2018-10-21T21:02:14.176Z,3.67
2018-10-21T21:04:41.935Z,3.87
2018-10-21T21:07:10.129Z,3.25
2018-10-21T21:09:38.762Z,3.08
2018-10-21T21:12:06.525Z,4.00
2018-10-21T21:14:34.365Z,2.98
2018-10-21T21:17:02.805Z,3.72
2018-10-21T21:19:30.600Z,3.95
2018-10-21T21:21:58.282Z,3.58
2018-10-21T21:24:26.196Z,3.55
2018-10-21T21:26:54.036Z,4.45
2018-10-21T21:29:21.768Z,3.95
2018-10-21T21:31:49.593Z,4.30
2018-10-21T21:34:17.879Z,3.02
2018-10-21T21:36:45.672Z,3.22
2018-10-21T21:39:14.630Z,3.45
2018-10-21T21:41:43.764Z,4.42
2018-10-21T21:44:11.599Z,3.70
2018-10-21T21:46:40.105Z,4.08
2018-10-21T21:49:09.519Z,4.15
2018-10-21T21:51:37.577Z,3.83
2018-10-21T21:54:06.369Z,4.28
2018-10-21T21:56:38.159Z,3.60
2018-10-21T21:59:07.996Z,4.35
2018-10-21T22:01:35.992Z,4.37
2018-10-21T22:04:03.798Z,4.67
2018-10-21T22:06:31.920Z,5.40
2018-10-21T22:09:00.590Z,3.98
2018-10-21T22:11:28.431Z,4.05
2018-10-21T22:13:57.034Z,4.00
2018-10-21T22:16:28.556Z,4.17
2018-10-21T22:18:56.372Z,3.47
2018-10-21T22:21:24.117Z,4.47
2018-10-21T22:23:51.867Z,3.08
2018-10-21T22:26:19.644Z,4.50
2018-10-21T22:28:47.379Z,4.30
2018-10-21T22:31:15.133Z,3.67
2018-10-21T22:33:46.453Z,4.78
2018-10-21T22:36:14.224Z,4.58
2018-10-21T22:38:41.948Z,4.30
2018-10-21T22:41:09.603Z,4.85
2018-10-21T22:43:37.359Z,5.70
2018-10-21T22:46:05.350Z,4.20
2018-10-21T22:48:33.014Z,4.50
2018-10-21T22:51:00.756Z,5.70
2018-10-21T22:53:28.547Z,4.03
2018-10-21T22:55:56.268Z,4.62
2018-10-21T22:58:24.029Z,4.05
2018-10-21T23:00:51.824Z,4.33
2018-10-21T23:03:19.620Z,4.62
2018-10-21T23:05:47.384Z,4.35
2018-10-21T23:08:15.164Z,4.60
2018-10-21T23:10:42.880Z,4.28
2018-10-21T23:13:10.593Z,5.17
2018-10-21T23:15:38.292Z,3.75
2018-10-21T23:18:06.111Z,5.15
2018-10-21T23:20:33.763Z,4.28
2018-10-21T23:23:01.465Z,4.58
2018-10-21T23:25:29.296Z,4.10
2018-10-21T23:27:57.055Z,4.10
2018-10-21T23:30:24.799Z,3.70
2018-10-21T23:32:52.500Z,4.40
2018-10-21T23:35:20.316Z,4.20
2018-10-21T23:37:48.077Z,4.53
2018-10-21T23:40:15.869Z,5.35
2018-10-21T23:42:43.605Z,3.90
2018-10-21T23:45:11.301Z,4.75
2018-10-21T23:47:39.000Z,3.65
2018-10-21T23:50:07.263Z,4.25
2018-10-21T23:52:35.015Z,5.20
2018-10-21T23:55:02.758Z,3.95
2018-10-21T23:57:30.479Z,3.40
2018-10-21T23:59:58.224Z,3.70
